Time;durP1;ratioP1;P1;durP2;ratioP2;P2;SDS_P1;SDS_P2;PMS_P1;PMS_P2;Temp;Humidity;BMP_temperature;BMP_pressure;BME280_temperature;BME280_humidity;BME280_pressure;Samples;Min_cycle;Max_cycle;Signal;HPM_P1;HPM_P2
2022/08/15 00:01:15;;;;;;;;;18.67;18.67;;;;;23.45;62.16;100103.47;5116248;27;45563;-66
2022/08/15 00:03:44;;;;;;;;;17.00;17.00;;;;;23.47;61.80;100096.72;5110524;27;45307;-66
2022/08/15 00:06:17;;;;;;;;;22.00;20.67;;;;;23.40;62.15;100090.63;5098628;27;46125;-65
2022/08/15 00:08:47;;;;;;;;;17.33;16.67;;;;;23.51;62.27;100100.59;5118760;27;45631;-65
2022/08/15 00:11:17;;;;;;;;;22.33;20.67;;;;;23.60;62.01;100110.00;5115401;27;45393;-72
2022/08/15 00:13:46;;;;;;;;;18.67;17.00;;;;;23.60;61.95;100109.19;5100344;27;45438;-65
2022/08/15 00:16:15;;;;;;;;;19.00;17.33;;;;;23.62;61.74;100104.31;5112093;27;45673;-64
2022/08/15 00:18:42;;;;;;;;;18.33;17.67;;;;;23.65;61.99;100103.84;5119990;27;45466;-65
2022/08/15 00:21:09;;;;;;;;;18.33;18.33;;;;;23.54;61.44;100088.44;5110029;27;45532;-65
2022/08/15 00:23:34;;;;;;;;;17.67;17.33;;;;;23.71;61.71;100102.88;5120015;27;45440;-64
2022/08/15 00:26:01;;;;;;;;;16.33;16.33;;;;;23.67;61.31;100097.13;5119067;27;52406;-64
2022/08/15 00:28:29;;;;;;;;;18.67;18.33;;;;;23.67;60.87;100107.16;5117983;27;45314;-65
2022/08/15 00:30:55;;;;;;;;;23.00;21.33;;;;;23.60;61.39;100090.19;5117992;27;45304;-63
2022/08/15 00:33:21;;;;;;;;;22.67;17.33;;;;;23.51;61.45;100073.47;5115565;27;45384;-64
2022/08/15 00:35:49;;;;;;;;;24.67;22.33;;;;;23.64;61.23;100097.63;5117600;27;46170;-63
2022/08/15 00:38:20;;;;;;;;;18.33;18.33;;;;;23.10;60.96;100008.72;5108716;27;45898;-64
2022/08/15 00:43:36;;;;;;;;;20.00;19.33;;;;;23.62;60.96;100097.00;5109287;27;45467;-64
2022/08/15 00:46:04;;;;;;;;;19.00;19.00;;;;;23.63;60.86;100100.56;5102242;27;46246;-64
2022/08/15 00:48:42;;;;;;;;;17.67;16.67;;;;;23.59;60.36;100088.53;5100219;27;45362;-64
2022/08/15 00:51:10;;;;;;;;;26.00;23.33;;;;;23.61;60.55;100095.38;5102486;27;45330;-65
2022/08/15 00:53:37;;;;;;;;;18.67;16.67;;;;;23.47;61.03;100074.19;5109944;27;45525;-66
2022/08/15 00:56:04;;;;;;;;;20.00;19.00;;;;;23.56;60.65;100100.72;5103568;27;46771;-65
2022/08/15 00:58:30;;;;;;;;;23.00;20.33;;;;;23.50;60.39;100090.81;5112334;27;45607;-66
2022/08/15 01:00:55;;;;;;;;;21.00;18.00;;;;;23.41;60.16;100081.41;5112092;27;46890;-64
2022/08/15 01:03:29;;;;;;;;;24.33;21.67;;;;;23.44;60.47;100085.56;5098072;27;45608;-64
2022/08/15 01:05:57;;;;;;;;;20.33;18.33;;;;;23.45;60.87;100096.16;5117319;27;46774;-64
2022/08/15 01:08:27;;;;;;;;;20.33;20.00;;;;;23.44;60.68;100101.81;5109505;27;45354;-64
2022/08/15 01:10:58;;;;;;;;;19.00;16.67;;;;;23.41;61.14;100108.53;5102886;27;45559;-65
2022/08/15 01:13:23;;;;;;;;;23.67;20.67;;;;;23.41;61.38;100099.56;5108261;27;45519;-64
2022/08/15 01:15:48;;;;;;;;;23.00;18.67;;;;;23.31;61.45;100082.06;5107591;27;46354;-66
2022/08/15 01:18:15;;;;;;;;;21.00;17.67;;;;;23.10;61.04;100047.50;5116043;27;45211;-64
2022/08/15 01:20:43;;;;;;;;;19.33;18.33;;;;;23.34;61.17;100097.84;5098475;27;45311;-64
2022/08/15 01:23:47;;;;;;;;;23.67;20.67;;;;;23.33;61.52;100096.19;5105941;27;45581;-64
2022/08/15 01:26:15;;;;;;;;;21.33;19.00;;;;;23.28;61.43;100087.97;5115338;27;45842;-64
2022/08/15 01:28:44;;;;;;;;;20.33;18.00;;;;;23.27;60.84;100097.19;5106978;27;45644;-64
2022/08/15 01:31:13;;;;;;;;;20.00;20.00;;;;;23.23;60.88;100096.03;5117010;27;45176;-64
2022/08/15 01:33:42;;;;;;;;;24.67;20.67;;;;;23.16;61.29;100089.09;5098353;27;45577;-64
2022/08/15 01:36:09;;;;;;;;;20.33;20.33;;;;;22.24;60.87;99940.94;5109130;27;45253;-64
2022/08/15 01:38:39;;;;;;;;;23.67;23.67;;;;;23.18;61.31;100090.50;5116216;27;45457;-73
2022/08/15 01:41:11;;;;;;;;;21.33;19.67;;;;;23.16;61.26;100106.19;5110143;27;45357;-67
2022/08/15 01:43:46;;;;;;;;;22.00;21.00;;;;;23.14;61.49;100097.47;5113118;27;45504;-65
2022/08/15 01:46:14;;;;;;;;;24.33;21.67;;;;;22.99;61.48;100081.72;5101541;27;47320;-65
2022/08/15 01:48:47;;;;;;;;;20.67;18.00;;;;;23.10;61.52;100084.63;5102869;27;45539;-64
2022/08/15 01:51:15;;;;;;;;;21.67;20.00;;;;;23.00;61.26;100079.84;5117854;27;45294;-63
2022/08/15 01:54:03;;;;;;;;;19.33;17.00;;;;;23.01;61.25;100087.72;5100568;27;45214;-65
2022/08/15 01:56:36;;;;;;;;;24.67;22.00;;;;;23.02;61.59;100094.78;5101752;27;46732;-67
2022/08/15 01:59:05;;;;;;;;;19.33;19.33;;;;;22.99;61.79;100095.28;5107177;27;45449;-64
2022/08/15 02:01:39;;;;;;;;;24.67;23.33;;;;;22.94;61.63;100091.66;5102120;27;45423;-64
2022/08/15 02:04:05;;;;;;;;;28.00;25.33;;;;;22.93;61.85;100084.59;5114900;27;45544;-74
2022/08/15 02:06:30;;;;;;;;;23.00;22.67;;;;;22.92;62.08;100093.78;5106435;27;46648;-69
2022/08/15 02:08:56;;;;;;;;;22.00;19.00;;;;;22.83;62.60;100073.56;5105283;27;45549;-69
2022/08/15 02:11:25;;;;;;;;;23.33;22.33;;;;;22.81;63.00;100092.69;5100280;27;45480;-66
2022/08/15 02:13:56;;;;;;;;;19.33;18.00;;;;;22.78;62.81;100088.59;5110616;27;45481;-65
2022/08/15 02:16:30;;;;;;;;;27.00;25.33;;;;;22.60;62.87;100064.38;5106777;27;46508;-64
2022/08/15 02:18:56;;;;;;;;;26.00;23.67;;;;;22.73;62.81;100084.97;5116242;27;45299;-64
2022/08/15 02:21:22;;;;;;;;;26.33;24.33;;;;;22.61;63.21;100059.75;5112159;27;45520;-73
2022/08/15 02:23:47;;;;;;;;;19.67;19.67;;;;;22.68;62.83;100077.56;5109924;27;45188;-64
2022/08/15 02:26:14;;;;;;;;;23.33;19.67;;;;;22.68;62.63;100072.13;5108904;27;47329;-66
2022/08/15 02:28:41;;;;;;;;;23.33;23.33;;;;;22.67;62.45;100070.50;5121450;27;46156;-64
2022/08/15 02:31:16;;;;;;;;;23.67;23.33;;;;;22.61;62.27;100060.59;5097022;27;45262;-63
2022/08/15 02:33:51;;;;;;;;;18.67;18.67;;;;;22.65;62.45;100078.03;5108333;27;45472;-63
2022/08/15 02:36:18;;;;;;;;;31.33;24.33;;;;;22.52;62.10;100040.38;5117124;27;46100;-63
2022/08/15 02:38:45;;;;;;;;;21.00;20.33;;;;;22.69;61.95;100062.13;5118633;27;45303;-67
2022/08/15 02:41:13;;;;;;;;;20.67;20.67;;;;;22.69;62.01;100067.53;5116681;27;45372;-63
2022/08/15 02:43:43;;;;;;;;;15.67;15.67;;;;;22.08;61.81;99958.75;5110801;27;46397;-63
2022/08/15 02:46:09;;;;;;;;;22.33;22.33;;;;;22.56;62.19;100027.16;5119347;27;46761;-64
2022/08/15 02:48:35;;;;;;;;;21.00;21.00;;;;;22.62;61.91;100043.28;5104411;27;45665;-77
2022/08/15 02:51:01;;;;;;;;;24.67;22.67;;;;;22.66;62.09;100051.78;5118328;27;45320;-63
2022/08/15 02:53:27;;;;;;;;;26.00;24.00;;;;;22.59;62.48;100043.75;5109041;27;45483;-63
2022/08/15 02:55:52;;;;;;;;;23.33;21.33;;;;;22.68;62.26;100053.16;5104477;27;45650;-64
2022/08/15 02:58:17;;;;;;;;;22.33;22.33;;;;;22.19;62.27;99978.72;5111939;27;45360;-64
2022/08/15 03:00:45;;;;;;;;;21.33;21.00;;;;;22.62;62.86;100067.66;5115174;27;45555;-64
2022/08/15 03:03:14;;;;;;;;;26.67;23.67;;;;;22.60;62.94;100053.53;5120505;27;45238;-63
2022/08/15 03:05:43;;;;;;;;;24.33;23.33;;;;;22.59;62.78;100057.31;5111988;27;47825;-64
2022/08/15 03:08:09;;;;;;;;;22.67;22.67;;;;;22.59;62.64;100059.19;5118278;27;45317;-74
2022/08/15 03:10:37;;;;;;;;;26.67;25.33;;;;;22.50;62.48;100042.50;5114116;27;46774;-64
2022/08/15 03:13:05;;;;;;;;;24.00;22.00;;;;;21.61;62.43;99886.78;5116349;27;45509;-64
2022/08/15 03:15:40;;;;;;;;;27.67;25.67;;;;;22.60;62.28;100048.09;5110247;27;46644;-65
2022/08/15 03:18:05;;;;;;;;;24.33;22.67;;;;;22.47;61.96;100021.31;5115726;27;45472;-66
2022/08/15 03:20:32;;;;;;;;;23.00;23.00;;;;;22.56;62.63;100049.66;5113331;27;45349;-65
2022/08/15 03:22:59;;;;;;;;;25.00;25.00;;;;;22.57;62.59;100048.59;5109814;27;45607;-64
2022/08/15 03:25:25;;;;;;;;;28.33;24.33;;;;;22.57;62.49;100053.19;5108852;27;45911;-63
2022/08/15 03:27:52;;;;;;;;;20.00;18.67;;;;;22.55;62.92;100042.59;5101180;27;45540;-68
2022/08/15 03:30:17;;;;;;;;;26.67;25.33;;;;;22.44;62.71;100032.63;5111217;27;46950;-63
2022/08/15 03:32:52;;;;;;;;;19.00;18.00;;;;;22.44;63.13;100033.44;5117491;27;45182;-64
2022/08/15 03:35:20;;;;;;;;;29.00;27.67;;;;;22.49;63.00;100034.59;5100964;27;48300;-65
2022/08/15 03:37:46;;;;;;;;;23.00;22.00;;;;;22.48;63.07;100039.22;5099234;27;45583;-65
2022/08/15 03:40:12;;;;;;;;;28.33;26.67;;;;;22.47;63.34;100042.97;5107173;27;45535;-65
2022/08/15 03:42:38;;;;;;;;;26.00;24.33;;;;;22.48;63.13;100049.22;5111801;27;45484;-64
2022/08/15 03:45:09;;;;;;;;;24.33;24.00;;;;;22.45;63.43;100056.75;5115796;27;46498;-64
2022/08/15 03:47:35;;;;;;;;;27.00;24.33;;;;;22.35;62.98;100024.03;5112969;27;45491;-64
2022/08/15 03:50:00;;;;;;;;;26.67;26.00;;;;;22.10;62.79;99985.59;5111670;27;45591;-66
2022/08/15 03:52:26;;;;;;;;;28.33;26.00;;;;;22.48;62.95;100036.50;5114464;27;45264;-65
2022/08/15 03:54:51;;;;;;;;;26.00;24.67;;;;;22.45;62.79;100043.22;5107511;27;46515;-65
2022/08/15 03:57:17;;;;;;;;;29.67;25.67;;;;;21.65;63.18;99906.91;5112291;27;45630;-68
2022/08/15 03:59:43;;;;;;;;;26.67;24.67;;;;;22.37;63.14;100030.03;5104985;27;45514;-65
2022/08/15 04:02:10;;;;;;;;;27.00;25.33;;;;;21.53;63.11;99902.31;5106283;27;45480;-65
2022/08/15 04:04:36;;;;;;;;;26.67;23.33;;;;;22.35;63.06;100023.22;5111935;27;46086;-65
2022/08/15 04:07:03;;;;;;;;;22.33;22.33;;;;;22.31;63.15;100022.03;5112265;27;56366;-65
2022/08/15 04:09:29;;;;;;;;;32.00;29.33;;;;;22.32;63.06;100018.28;5106625;27;45475;-64
2022/08/15 04:11:54;;;;;;;;;24.67;23.00;;;;;22.29;63.22;100013.34;5115507;27;45223;-65
2022/08/15 04:14:21;;;;;;;;;26.33;26.33;;;;;22.31;62.72;100016.63;5117506;27;45592;-64
2022/08/15 04:16:46;;;;;;;;;17.33;17.33;;;;;22.29;63.08;100016.03;5110486;27;45369;-65
2022/08/15 04:19:15;;;;;;;;;24.67;24.33;;;;;21.81;63.14;99935.91;5112252;27;46582;-65
2022/08/15 04:21:41;;;;;;;;;27.33;25.67;;;;;22.24;63.20;100016.75;5118520;27;45297;-65
2022/08/15 04:24:06;;;;;;;;;27.00;25.33;;;;;22.14;62.96;100011.94;5118279;27;45516;-74
2022/08/15 04:26:32;;;;;;;;;28.33;23.33;;;;;22.15;62.87;100019.00;5104192;27;46047;-65
2022/08/15 04:28:57;;;;;;;;;19.33;18.00;;;;;21.73;62.78;99947.94;5099051;27;45309;-65
2022/08/15 04:31:23;;;;;;;;;24.33;22.67;;;;;22.17;62.70;100033.13;5106763;27;45482;-67
2022/08/15 04:33:48;;;;;;;;;25.33;25.33;;;;;22.19;62.79;100023.94;5111906;27;48408;-71
2022/08/15 04:36:16;;;;;;;;;25.67;23.00;;;;;21.71;62.55;99952.75;5110054;27;45638;-65
2022/08/15 04:38:43;;;;;;;;;21.67;20.00;;;;;22.11;62.46;100027.84;5098099;27;45267;-65
2022/08/15 04:41:10;;;;;;;;;28.00;24.67;;;;;21.94;62.48;100006.03;5112882;27;45238;-66
2022/08/15 04:43:38;;;;;;;;;24.00;23.00;;;;;22.09;62.36;100025.38;5112433;27;46532;-65
2022/08/15 04:46:04;;;;;;;;;23.67;22.33;;;;;21.93;62.16;100009.81;5114638;27;45640;-78
2022/08/15 04:48:31;;;;;;;;;21.33;20.00;;;;;22.04;62.25;100025.25;5130611;27;45483;-66
2022/08/15 04:50:58;;;;;;;;;23.67;21.67;;;;;22.03;62.27;100020.88;5107401;27;45467;-65
2022/08/15 04:53:27;;;;;;;;;27.67;26.67;;;;;21.85;61.93;99985.81;5098460;27;46909;-65
2022/08/15 04:55:53;;;;;;;;;26.67;26.33;;;;;22.07;62.09;100013.97;5111173;27;45614;-64
2022/08/15 04:58:19;;;;;;;;;31.00;27.33;;;;;21.98;61.81;100001.78;5107424;27;45592;-64
2022/08/15 05:00:59;;;;;;;;;24.00;21.00;;;;;22.00;61.94;100005.09;5112209;27;45541;-64
2022/08/15 05:03:25;;;;;;;;;22.33;21.67;;;;;21.91;62.25;99987.56;5101467;27;46760;-65
2022/08/15 05:05:54;;;;;;;;;21.00;20.00;;;;;22.03;61.56;100004.63;5102308;27;45286;-64
2022/08/15 05:08:21;;;;;;;;;28.67;26.00;;;;;22.03;61.52;100003.81;5109856;27;45524;-66
2022/08/15 05:10:54;;;;;;;;;23.67;20.33;;;;;21.86;62.00;99979.34;5099830;27;45280;-64
2022/08/15 05:13:23;;;;;;;;;25.00;24.00;;;;;22.04;61.87;100006.31;5112365;27;47457;-65
2022/08/15 05:15:49;;;;;;;;;24.67;24.67;;;;;22.01;61.74;99993.19;5109703;27;45587;-65
2022/08/15 05:18:15;;;;;;;;;22.00;20.33;;;;;22.05;61.90;99991.72;5102049;27;45447;-65
2022/08/15 05:20:41;;;;;;;;;22.33;20.33;;;;;21.59;61.87;99915.94;5110079;27;46354;-65
2022/08/15 05:23:13;;;;;;;;;21.67;21.00;;;;;22.07;61.46;100000.41;5093030;27;48084;-64
2022/08/15 05:25:42;;;;;;;;;18.00;18.00;;;;;22.04;61.26;99990.06;5106607;27;46088;-67
2022/08/15 05:28:08;;;;;;;;;22.00;20.33;;;;;21.93;61.08;99971.91;5114617;27;45402;-63
2022/08/15 05:30:33;;;;;;;;;18.33;18.33;;;;;22.11;61.22;99998.06;5115357;27;45633;-63
2022/08/15 05:33:04;;;;;;;;;21.67;20.00;;;;;22.13;60.76;99995.94;5115446;27;46769;-64
2022/08/15 05:35:32;;;;;;;;;24.33;22.00;;;;;22.16;60.75;99998.16;5103890;27;45506;-76
2022/08/15 05:38:00;;;;;;;;;18.00;18.00;;;;;22.20;60.42;99990.38;5113716;27;45663;-65
2022/08/15 05:40:30;;;;;;;;;22.33;21.33;;;;;22.21;59.86;99992.03;5115598;27;45797;-65
2022/08/15 05:43:11;;;;;;;;;17.00;16.67;;;;;22.21;59.73;99992.03;5107684;27;48646;-65
2022/08/15 05:45:55;;;;;;;;;17.00;17.00;;;;;22.28;59.82;99990.03;5107319;27;45496;-65
2022/08/15 05:48:29;;;;;;;;;19.67;19.67;;;;;22.30;59.45;99985.19;5112425;27;45527;-71
2022/08/15 05:51:00;;;;;;;;;22.67;21.67;;;;;22.33;59.32;99990.13;5103331;27;45944;-65
2022/08/15 05:53:37;;;;;;;;;24.00;23.00;;;;;22.31;59.74;99984.94;5114852;27;45721;-64
2022/08/15 05:56:21;;;;;;;;;22.67;20.67;;;;;21.84;59.22;99903.81;5103107;27;46465;-65
2022/08/15 05:58:57;;;;;;;;;22.00;21.33;;;;;22.29;59.23;99975.44;5103007;27;45566;-64
2022/08/15 06:01:35;;;;;;;;;24.00;22.33;;;;;22.49;58.98;100002.94;5114727;27;46695;-65
2022/08/15 06:04:09;;;;;;;;;19.33;18.33;;;;;22.55;58.78;100004.66;5111130;27;47393;-65
2022/08/15 06:06:38;;;;;;;;;21.33;21.00;;;;;22.57;58.42;100004.41;5105388;27;45492;-63
2022/08/15 06:09:30;;;;;;;;;22.33;19.33;;;;;22.56;58.53;99994.66;5101923;27;46466;-63
2022/08/15 06:11:58;;;;;;;;;26.33;23.67;;;;;22.67;58.27;99999.22;5097304;27;45485;-64
2022/08/15 06:14:49;;;;;;;;;22.33;22.33;;;;;22.75;57.77;100002.34;5107083;27;47452;-64
2022/08/15 06:17:23;;;;;;;;;22.67;21.00;;;;;22.89;57.95;100004.81;5109263;27;45523;-65
2022/08/15 06:19:51;;;;;;;;;20.33;19.33;;;;;22.96;57.50;100003.59;5111265;27;45591;-63
2022/08/15 06:22:47;;;;;;;;;19.00;17.67;;;;;23.11;57.36;100005.75;5114847;27;45239;-64
2022/08/15 06:25:49;;;;;;;;;18.67;18.67;;;;;23.17;56.92;100007.50;5114313;27;46719;-65
2022/08/15 06:28:15;;;;;;;;;20.33;20.33;;;;;23.23;56.09;99992.97;5116809;27;45506;-66
2022/08/15 06:31:04;;;;;;;;;21.33;21.33;;;;;22.71;55.94;99900.94;5102601;27;45573;-63
2022/08/15 06:33:48;;;;;;;;;22.67;20.00;;;;;23.47;56.11;99998.25;5108673;27;45850;-67
2022/08/15 06:36:27;;;;;;;;;18.67;17.67;;;;;23.66;55.39;99991.53;5115355;27;45708;-64
2022/08/15 06:39:12;;;;;;;;;23.00;21.67;;;;;23.91;54.92;99986.47;5114660;27;45567;-67
2022/08/15 06:41:51;;;;;;;;;23.33;20.00;;;;;24.47;53.24;99992.66;5110259;27;45528;-65
2022/08/15 06:44:18;;;;;;;;;19.67;17.00;;;;;25.17;51.69;99996.41;5097905;27;45562;-63
2022/08/15 06:46:45;;;;;;;;;21.33;19.00;;;;;25.84;49.95;99990.44;5099637;27;47001;-70
2022/08/15 06:49:13;;;;;;;;;17.33;16.67;;;;;26.34;48.18;99962.66;5105311;27;45500;-77
2022/08/15 06:51:41;;;;;;;;;16.33;16.33;;;;;26.90;47.39;99976.47;5099520;27;46314;-66
2022/08/15 06:54:14;;;;;;;;;16.67;16.67;;;;;27.51;45.68;99992.06;5107342;27;46343;-66
2022/08/15 06:56:54;;;;;;;;;19.67;19.67;;;;;27.88;44.32;99980.88;5106576;27;46772;-64
2022/08/15 06:59:23;;;;;;;;;19.33;17.00;;;;;28.26;43.44;99992.25;5108878;27;45554;-63
2022/08/15 07:02:03;;;;;;;;;16.33;16.33;;;;;28.42;43.13;99986.44;5108420;27;46424;-64
2022/08/15 07:04:28;;;;;;;;;17.67;17.67;;;;;28.74;42.59;99987.94;5114285;27;45647;-66
2022/08/15 07:07:15;;;;;;;;;17.33;16.33;;;;;29.03;42.00;99979.81;5099981;27;46021;-65
2022/08/15 07:09:53;;;;;;;;;16.00;16.00;;;;;28.96;41.10;99908.19;5096476;27;46110;-73
2022/08/15 07:12:34;;;;;;;;;14.33;14.00;;;;;29.81;40.57;99984.38;5101486;27;45438;-64
2022/08/15 07:15:26;;;;;;;;;10.33;10.33;;;;;30.19;39.27;99983.44;5115639;27;45486;-64
2022/08/15 07:18:02;;;;;;;;;18.00;15.33;;;;;30.64;38.73;99995.00;5069420;27;46548;-64
2022/08/15 07:20:27;;;;;;;;;16.67;15.67;;;;;30.77;38.14;99968.72;5104646;27;46429;-65
2022/08/15 07:22:53;;;;;;;;;16.00;14.67;;;;;31.01;38.10;99963.16;5101665;27;45700;-66
2022/08/15 07:25:26;;;;;;;;;17.67;16.67;;;;;31.55;37.59;99989.22;5109548;27;45435;-63
2022/08/15 07:28:02;;;;;;;;;15.67;15.33;;;;;31.32;36.04;99942.34;5106703;27;45532;-63
2022/08/15 07:30:50;;;;;;;;;15.67;14.67;;;;;31.77;36.15;99998.44;5109251;27;45353;-64
2022/08/15 07:33:40;;;;;;;;;14.00;14.00;;;;;32.27;34.90;99993.13;5116229;27;45361;-62
2022/08/15 07:36:29;;;;;;;;;15.33;15.33;;;;;32.82;35.10;99976.53;5119325;27;45169;-64
2022/08/15 07:38:55;;;;;;;;;17.67;16.67;;;;;33.50;33.54;99983.75;5114820;27;46838;-68
2022/08/15 07:41:27;;;;;;;;;12.33;12.00;;;;;34.00;32.30;99988.22;5100204;27;46437;-65
2022/08/15 07:44:20;;;;;;;;;12.00;12.00;;;;;34.38;31.98;99992.13;5113476;27;45552;-64
2022/08/15 07:46:52;;;;;;;;;13.00;9.67;;;;;34.75;30.49;99999.00;5100906;27;45429;-68
2022/08/15 07:49:25;;;;;;;;;12.00;12.00;;;;;35.12;30.42;99996.78;5113549;27;45793;-78
2022/08/15 07:52:01;;;;;;;;;11.00;10.00;;;;;35.48;29.75;99996.44;5106094;27;45607;-63
2022/08/15 07:54:41;;;;;;;;;11.00;11.00;;;;;35.85;29.12;99989.38;5099940;27;45451;-68
2022/08/15 07:57:38;;;;;;;;;11.00;9.67;;;;;36.05;28.60;99992.56;5110647;27;45485;-64
2022/08/15 08:00:04;;;;;;;;;10.00;10.00;;;;;35.77;28.16;99990.19;5099963;27;46832;-63
2022/08/15 08:02:40;;;;;;;;;12.33;9.33;;;;;35.38;28.85;99919.38;5114605;27;45467;-73
2022/08/15 08:05:06;;;;;;;;;9.33;9.33;;;;;35.62;28.92;99990.69;5100586;27;45248;-65
2022/08/15 08:07:37;;;;;;;;;14.33;12.00;;;;;34.86;29.70;99995.97;5113016;27;45494;-72
2022/08/15 08:10:26;;;;;;;;;9.67;9.67;;;;;34.23;30.19;99994.47;5102960;27;45700;-68
2022/08/15 08:13:18;;;;;;;;;11.33;10.00;;;;;33.46;31.49;100003.97;5109325;27;45312;-72
2022/08/15 08:16:25;;;;;;;;;14.00;12.33;;;;;32.53;32.67;99989.84;5101439;27;45419;-64
2022/08/15 08:18:55;;;;;;;;;12.67;10.33;;;;;31.53;34.44;99970.28;5064401;27;45378;-63
2022/08/15 08:21:27;;;;;;;;;12.67;11.00;;;;;31.00;35.81;99987.03;5103486;27;45807;-69
2022/08/15 08:23:58;;;;;;;;;14.00;14.00;;;;;29.88;37.27;99987.63;5113066;27;45302;-68
2022/08/15 08:26:55;;;;;;;;;13.67;10.33;;;;;29.23;38.97;99993.34;5108400;27;45546;-64
2022/08/15 08:29:44;;;;;;;;;9.33;9.33;;;;;28.73;39.85;100009.00;5115954;27;45531;-64
2022/08/15 08:32:20;;;;;;;;;16.00;13.33;;;;;28.30;41.04;99983.22;5112416;27;45556;-65
2022/08/15 08:35:23;;;;;;;;;10.67;9.67;;;;;28.24;41.13;100005.38;5098576;27;45481;-64
2022/08/15 08:37:57;;;;;;;;;12.67;11.67;;;;;27.81;42.16;99983.88;5104577;27;45465;-63
2022/08/15 08:43:30;;;;;;;;;9.00;7.67;;;;;27.55;43.07;99972.13;5105054;27;45385;-66
2022/08/15 08:46:40;;;;;;;;;11.67;11.67;;;;;27.78;42.92;100000.00;5098326;27;45740;-64
2022/08/15 08:49:15;;;;;;;;;12.00;10.33;;;;;27.81;42.61;99988.50;5102815;27;45627;-64
2022/08/15 08:52:15;;;;;;;;;10.00;9.00;;;;;27.81;42.54;99985.78;5108575;27;45389;-66
2022/08/15 08:55:02;;;;;;;;;9.67;9.00;;;;;27.63;42.93;99980.88;5081298;27;46264;-67
2022/08/15 08:57:37;;;;;;;;;10.33;9.33;;;;;27.34;42.97;99978.69;5108597;27;46456;-75
2022/08/15 09:00:06;;;;;;;;;8.00;8.00;;;;;27.16;44.17;99984.69;5109925;27;45563;-76
2022/08/15 09:02:41;;;;;;;;;15.00;14.00;;;;;26.82;44.41;99974.25;5103048;27;45536;-64
2022/08/15 09:05:21;;;;;;;;;10.00;9.00;;;;;26.75;45.35;99995.50;5110625;27;45815;-66
2022/08/15 09:07:53;;;;;;;;;10.33;9.00;;;;;26.50;45.52;99976.34;5111318;27;45245;-63
2022/08/15 09:10:25;;;;;;;;;10.33;9.00;;;;;26.26;46.69;99984.97;5117004;27;45289;-65
2022/08/15 09:15:42;;;;;;;;;7.33;7.33;;;;;26.51;46.03;100005.25;5117989;27;45866;-64
2022/08/15 09:18:14;;;;;;;;;7.00;6.00;;;;;25.98;46.23;99900.91;5109585;27;45547;-63
2022/08/15 09:20:41;;;;;;;;;7.33;5.67;;;;;26.58;46.87;100012.09;5114652;27;45222;-65
2022/08/15 09:23:11;;;;;;;;;7.00;7.00;;;;;26.80;46.39;100000.97;5111822;27;45443;-66
2022/08/15 09:25:52;;;;;;;;;5.67;5.33;;;;;27.23;45.34;99997.00;5104389;27;45823;-65
2022/08/15 09:28:34;;;;;;;;;8.33;6.00;;;;;27.59;44.81;99996.97;5105817;27;45221;-66
2022/08/15 09:31:12;;;;;;;;;6.00;6.00;;;;;28.12;43.82;100000.19;5116503;27;45277;-65
2022/08/15 09:34:05;;;;;;;;;7.33;6.33;;;;;28.35;43.37;100001.50;5103469;27;45636;-66
2022/08/15 09:36:31;;;;;;;;;5.33;5.33;;;;;29.04;41.75;99997.91;5116832;27;47944;-66
2022/08/15 09:39:15;;;;;;;;;5.00;5.00;;;;;30.20;39.45;99997.97;5100228;27;46660;-67
2022/08/15 09:42:08;;;;;;;;;3.00;3.00;;;;;32.22;36.25;99984.13;5110684;27;45223;-68
2022/08/15 09:45:04;;;;;;;;;5.67;4.67;;;;;33.32;33.84;100008.69;5110248;27;45408;-65
2022/08/15 09:47:59;;;;;;;;;5.00;5.00;;;;;33.56;33.77;99998.19;5101276;27;47319;-68
2022/08/15 09:50:43;;;;;;;;;3.33;3.33;;;;;34.57;31.44;99946.84;5102636;27;45576;-65
2022/08/15 09:53:40;;;;;;;;;5.00;5.00;;;;;36.12;29.03;100009.44;5108620;27;45460;-72
2022/08/15 09:56:10;;;;;;;;;3.00;3.00;;;;;36.11;28.75;100005.06;5111592;27;45643;-65
2022/08/15 09:58:51;;;;;;;;;4.00;4.00;;;;;35.16;29.40;99989.47;5112718;27;46774;-64
2022/08/15 10:01:31;;;;;;;;;4.00;4.00;;;;;34.02;31.65;99989.53;5115633;27;45448;-63
2022/08/15 10:04:02;;;;;;;;;5.00;5.00;;;;;33.16;33.54;100006.31;5106006;27;45667;-63
2022/08/15 10:06:31;;;;;;;;;3.00;3.00;;;;;32.22;34.55;99946.44;5095519;27;45565;-63
2022/08/15 10:09:01;;;;;;;;;4.00;4.00;;;;;32.04;34.92;100002.38;5096226;27;45712;-64
2022/08/15 10:11:51;;;;;;;;;6.67;6.67;;;;;31.19;36.74;100011.78;5105107;27;45618;-63
2022/08/15 10:14:20;;;;;;;;;6.00;6.00;;;;;30.53;38.25;100005.25;5117130;27;45487;-64
2022/08/15 10:16:49;;;;;;;;;5.33;5.33;;;;;29.92;39.13;99992.22;5117803;27;45341;-64
2022/08/15 10:19:35;;;;;;;;;6.00;6.00;;;;;29.46;40.37;100016.50;5116213;27;46780;-64
2022/08/15 10:22:21;;;;;;;;;6.33;6.33;;;;;28.82;42.03;100019.34;5117554;27;45538;-64
2022/08/15 10:25:19;;;;;;;;;5.00;5.00;;;;;28.29;43.14;100013.56;5105203;27;45678;-63
2022/08/15 10:28:05;;;;;;;;;5.33;5.33;;;;;27.87;43.94;100017.47;5095035;27;45579;-63
2022/08/15 10:30:34;;;;;;;;;6.33;6.33;;;;;27.89;44.31;100018.00;5103694;27;45433;-64
2022/08/15 10:33:20;;;;;;;;;5.00;5.00;;;;;27.88;44.33;100019.13;5106248;27;45579;-64
2022/08/15 10:35:47;;;;;;;;;6.67;6.67;;;;;27.82;43.92;100014.72;5095646;27;45341;-63
2022/08/15 10:38:22;;;;;;;;;6.00;6.00;;;;;27.72;44.15;100014.75;5109516;27;45547;-63
2022/08/15 10:41:09;;;;;;;;;6.67;6.67;;;;;27.50;45.07;100010.38;5117325;27;47523;-63
2022/08/15 10:44:00;;;;;;;;;6.00;6.00;;;;;27.53;44.57;100022.66;5104473;27;45243;-63
2022/08/15 10:46:41;;;;;;;;;6.67;6.67;;;;;27.50;45.35;100013.09;5104803;27;45620;-62
2022/08/15 10:49:15;;;;;;;;;5.67;4.67;;;;;27.40;45.10;100015.81;5102718;27;45401;-64
2022/08/15 10:51:40;;;;;;;;;6.33;6.33;;;;;27.28;45.82;100018.84;5096539;27;46438;-63
2022/08/15 10:54:45;;;;;;;;;8.33;8.33;;;;;27.20;45.90;100015.81;5095934;27;45187;-64
2022/08/15 10:57:16;;;;;;;;;6.00;6.00;;;;;27.13;45.97;100018.00;5099333;27;45355;-62
2022/08/15 10:59:45;;;;;;;;;5.00;5.00;;;;;27.08;46.75;100007.06;5100362;27;45549;-63
2022/08/15 11:02:18;;;;;;;;;5.00;5.00;;;;;27.01;47.16;100011.94;5120496;27;46645;-63
2022/08/15 11:04:44;;;;;;;;;7.00;6.00;;;;;26.91;47.53;100016.28;5103303;27;45441;-64
2022/08/15 11:07:17;;;;;;;;;4.33;4.33;;;;;26.79;47.68;100012.97;5099430;27;45213;-63
2022/08/15 11:09:55;;;;;;;;;9.00;8.00;;;;;26.66;47.65;99994.41;5100190;27;45311;-62
2022/08/15 11:12:24;;;;;;;;;6.33;6.33;;;;;26.42;47.94;99955.03;5099511;27;46975;-63
2022/08/15 11:14:53;;;;;;;;;8.00;7.00;;;;;26.55;48.44;100004.44;5099869;27;45549;-63
2022/08/15 11:17:23;;;;;;;;;6.33;6.33;;;;;26.38;48.98;100001.91;5100429;27;45384;-64
2022/08/15 11:19:51;;;;;;;;;6.00;5.33;;;;;26.23;49.11;99998.25;5107541;27;45255;-65
2022/08/15 11:22:52;;;;;;;;;6.00;6.00;;;;;26.20;49.95;100015.16;5100201;27;45547;-65
2022/08/15 11:25:22;;;;;;;;;5.33;5.33;;;;;26.11;50.96;100006.66;5087890;27;45551;-63
2022/08/15 11:28:06;;;;;;;;;7.33;6.33;;;;;26.06;51.52;100017.53;5099782;27;45311;-62
2022/08/15 11:30:35;;;;;;;;;7.33;7.33;;;;;26.05;52.37;100024.06;5100253;27;45294;-64
2022/08/15 11:33:34;;;;;;;;;7.67;7.67;;;;;26.02;53.21;100019.13;5106277;27;47592;-63
2022/08/15 11:36:30;;;;;;;;;8.00;8.00;;;;;25.97;53.55;100016.38;5105342;27;45707;-63
2022/08/15 11:39:02;;;;;;;;;6.00;6.00;;;;;25.88;53.42;100023.41;5096463;27;45580;-65
2022/08/15 11:41:38;;;;;;;;;12.00;10.67;;;;;25.85;54.32;100027.50;5099660;27;47455;-63
2022/08/15 11:44:09;;;;;;;;;12.00;12.00;;;;;25.84;54.58;100022.31;5120172;27;45297;-64
2022/08/15 11:46:34;;;;;;;;;9.00;9.00;;;;;25.78;55.13;100033.16;5109986;27;45507;-63
2022/08/15 11:49:09;;;;;;;;;7.67;7.00;;;;;25.23;53.27;99923.81;5105684;27;45503;-63
2022/08/15 11:51:38;;;;;;;;;6.00;6.00;;;;;25.93;52.91;100031.63;5100214;27;45290;-64
2022/08/15 11:54:12;;;;;;;;;8.00;8.00;;;;;26.01;53.27;100028.38;5099242;27;45803;-63